createdAt,value
2022-12-17T00:02:22.725Z,76.73
2022-12-17T00:05:08.084Z,76.40
2022-12-17T00:07:53.533Z,79.00
2022-12-17T00:10:41.534Z,79.10
2022-12-17T00:13:39.641Z,77.07
2022-12-17T00:16:25.691Z,73.43
2022-12-17T00:19:11.048Z,72.80
2022-12-17T00:22:09.626Z,87.77
2022-12-17T00:24:54.643Z,70.63
2022-12-17T00:27:41.728Z,75.03
2022-12-17T00:30:27.268Z,77.33
2022-12-17T00:33:12.523Z,74.73
2022-12-17T00:35:57.507Z,78.40
2022-12-17T00:38:42.806Z,75.33
2022-12-17T00:41:27.578Z,72.13
2022-12-17T00:44:12.543Z,66.40
2022-12-17T00:46:57.982Z,71.37
2022-12-17T00:49:43.284Z,67.10
2022-12-17T00:52:28.208Z,68.50
2022-12-17T00:55:13.450Z,64.30
2022-12-17T00:57:58.688Z,60.13
2022-12-17T01:00:43.516Z,60.27
2022-12-17T01:03:30.368Z,66.93
2022-12-17T01:06:15.829Z,71.63
2022-12-17T01:09:01.928Z,62.50
2022-12-17T01:11:46.854Z,61.50
2022-12-17T01:14:32.229Z,57.57
2022-12-17T01:17:17.808Z,61.27
2022-12-17T01:20:02.689Z,65.63
2022-12-17T01:22:47.673Z,60.53
2022-12-17T01:25:32.507Z,59.23
2022-12-17T01:28:17.417Z,63.57
2022-12-17T01:31:03.700Z,55.33
2022-12-17T01:33:48.642Z,56.37
2022-12-17T01:36:33.665Z,56.10
2022-12-17T01:39:18.524Z,61.80
2022-12-17T01:42:03.878Z,60.33
2022-12-17T01:44:58.109Z,57.57
2022-12-17T01:47:59.001Z,60.27
2022-12-17T01:50:47.801Z,56.47
2022-12-17T01:53:35.199Z,58.03
2022-12-17T01:56:20.730Z,60.73
2022-12-17T01:59:05.938Z,62.67
2022-12-17T02:01:51.258Z,59.33
2022-12-17T02:04:36.553Z,65.60
2022-12-17T02:07:59.052Z,58.40
2022-12-17T02:10:56.708Z,64.67
2022-12-17T02:13:48.257Z,62.13
2022-12-17T02:17:15.409Z,59.63
2022-12-17T02:20:31.648Z,56.70
2022-12-17T02:23:47.615Z,63.07
2022-12-17T02:26:49.981Z,67.50
2022-12-17T02:29:35.427Z,60.87
2022-12-17T02:32:21.762Z,60.27
2022-12-17T02:35:07.558Z,62.03
2022-12-17T02:37:52.227Z,59.37
2022-12-17T02:40:44.192Z,54.73
2022-12-17T02:43:29.863Z,66.60
2022-12-17T02:46:15.468Z,58.83
2022-12-17T02:49:00.355Z,56.63
2022-12-17T02:51:45.568Z,59.17
2022-12-17T02:54:30.651Z,57.13
2022-12-17T02:57:16.872Z,52.37
2022-12-17T03:00:02.113Z,57.43
2022-12-17T03:02:47.092Z,52.53
2022-12-17T03:05:47.537Z,56.37
2022-12-17T03:08:33.142Z,52.20
2022-12-17T03:11:18.542Z,47.80
2022-12-17T03:14:03.428Z,48.67
2022-12-17T03:16:49.203Z,50.30
2022-12-17T03:19:34.297Z,53.73
2022-12-17T03:22:19.190Z,45.33
2022-12-17T03:25:03.972Z,53.33
2022-12-17T03:27:49.087Z,46.03
2022-12-17T03:30:36.388Z,48.30
2022-12-17T03:33:22.830Z,51.60
2022-12-17T03:36:11.567Z,45.43
2022-12-17T03:38:57.335Z,46.57
2022-12-17T03:41:42.404Z,44.53
2022-12-17T03:44:27.268Z,43.63
2022-12-17T03:47:12.026Z,47.23
2022-12-17T03:49:57.313Z,47.70
2022-12-17T03:52:42.259Z,48.20
2022-12-17T03:55:27.499Z,46.10
2022-12-17T03:58:12.474Z,44.97
2022-12-17T04:00:57.508Z,49.13
2022-12-17T04:03:42.513Z,45.43
2022-12-17T04:06:28.249Z,43.13
2022-12-17T04:09:13.308Z,46.80
2022-12-17T04:11:59.218Z,43.33
2022-12-17T04:14:44.368Z,50.13
2022-12-17T04:17:29.695Z,53.97
2022-12-17T04:20:15.259Z,44.47
2022-12-17T04:23:00.468Z,41.40
2022-12-17T04:25:45.652Z,44.07
2022-12-17T04:28:30.958Z,41.33
2022-12-17T04:31:16.405Z,46.17
2022-12-17T04:34:01.713Z,44.93
2022-12-17T04:36:47.095Z,44.47
2022-12-17T04:39:31.891Z,44.27
2022-12-17T04:42:17.164Z,44.23
2022-12-17T04:45:02.343Z,45.67
2022-12-17T04:47:47.898Z,41.43
2022-12-17T04:50:33.372Z,40.80
2022-12-17T04:53:22.918Z,47.03
2022-12-17T04:56:08.108Z,39.00
2022-12-17T04:58:53.674Z,37.80
2022-12-17T05:01:38.768Z,40.43
2022-12-17T05:04:24.274Z,38.30
2022-12-17T05:07:09.110Z,35.23
2022-12-17T05:09:53.963Z,38.87
2022-12-17T05:12:38.992Z,37.77
2022-12-17T05:15:24.845Z,36.47
2022-12-17T05:18:11.130Z,32.57
2022-12-17T05:20:55.907Z,32.53
2022-12-17T05:23:40.765Z,32.67
2022-12-17T05:26:43.319Z,32.67
2022-12-17T05:29:28.212Z,38.73
2022-12-17T05:32:13.311Z,32.47
2022-12-17T05:34:58.267Z,32.80
2022-12-17T05:37:43.123Z,31.37
2022-12-17T05:40:28.944Z,32.60
2022-12-17T05:43:15.836Z,33.63
2022-12-17T05:46:01.293Z,29.87
2022-12-17T05:48:46.353Z,34.97
2022-12-17T05:51:35.716Z,33.63
2022-12-17T05:54:23.686Z,41.80
2022-12-17T05:57:08.859Z,36.87
2022-12-17T05:59:53.846Z,36.20
2022-12-17T06:02:38.976Z,35.13
2022-12-17T06:05:24.972Z,32.73
2022-12-17T06:08:10.278Z,36.83
2022-12-17T06:10:55.063Z,40.33
2022-12-17T06:13:39.991Z,37.73
2022-12-17T06:16:29.617Z,35.33
2022-12-17T06:19:14.503Z,39.13
2022-12-17T06:21:59.958Z,41.10
2022-12-17T06:24:46.285Z,36.07
2022-12-17T06:27:31.663Z,35.53
2022-12-17T06:30:18.910Z,32.20
2022-12-17T06:33:04.227Z,33.90
2022-12-17T06:35:49.558Z,34.87
2022-12-17T06:38:34.593Z,40.07
2022-12-17T06:41:20.621Z,38.03
2022-12-17T06:44:05.960Z,33.47
2022-12-17T06:47:05.261Z,36.60
2022-12-17T06:49:50.458Z,37.87
2022-12-17T06:52:35.356Z,33.67
2022-12-17T06:55:20.279Z,37.10
2022-12-17T06:58:05.375Z,31.20
2022-12-17T07:00:50.311Z,34.57
2022-12-17T07:03:35.943Z,34.50
2022-12-17T07:06:21.422Z,35.23
2022-12-17T07:09:06.288Z,33.40
2022-12-17T07:11:51.508Z,36.53
2022-12-17T07:14:36.373Z,31.77
2022-12-17T07:17:21.203Z,30.67
2022-12-17T07:20:06.056Z,30.07
2022-12-17T07:22:50.994Z,36.77
2022-12-17T07:25:36.296Z,28.47
2022-12-17T07:28:21.165Z,28.13
2022-12-17T07:31:06.126Z,33.40
2022-12-17T07:33:50.911Z,24.97
2022-12-17T07:36:35.883Z,37.10
2022-12-17T07:39:21.015Z,37.07
2022-12-17T07:42:05.962Z,26.17
2022-12-17T07:44:50.778Z,28.87
2022-12-17T07:47:35.948Z,25.20
2022-12-17T07:50:21.087Z,27.03
2022-12-17T07:53:06.230Z,21.23
2022-12-17T07:55:51.013Z,24.93
2022-12-17T07:58:36.099Z,25.90
2022-12-17T08:01:21.542Z,20.30
2022-12-17T08:04:07.920Z,21.87
2022-12-17T08:06:58.415Z,24.87
2022-12-17T08:09:45.699Z,24.20
2022-12-17T08:12:30.465Z,25.20
2022-12-17T08:15:15.398Z,22.97
2022-12-17T08:18:00.149Z,24.93
2022-12-17T08:20:45.459Z,27.73
2022-12-17T08:23:30.373Z,24.70
2022-12-17T08:26:15.352Z,22.27
2022-12-17T08:29:00.323Z,22.57
2022-12-17T08:31:45.203Z,20.67
2022-12-17T08:34:30.746Z,23.70
2022-12-17T08:37:15.528Z,23.90
2022-12-17T08:40:00.598Z,23.83
2022-12-17T08:43:05.295Z,23.47
2022-12-17T08:45:50.343Z,21.37
2022-12-17T08:48:35.521Z,20.20
2022-12-17T08:51:37.255Z,20.70
2022-12-17T08:54:22.431Z,27.67
2022-12-17T08:57:07.728Z,24.50
2022-12-17T08:59:52.743Z,27.80
2022-12-17T09:02:37.690Z,26.60
2022-12-17T09:05:22.929Z,20.80
2022-12-17T09:08:08.092Z,43.83
2022-12-17T09:10:52.928Z,44.00
2022-12-17T09:13:37.890Z,25.63
2022-12-17T09:16:23.654Z,22.30
2022-12-17T09:19:09.219Z,19.90
2022-12-17T09:21:54.591Z,19.97
2022-12-17T09:24:39.438Z,19.50
2022-12-17T09:27:24.330Z,19.50
2022-12-17T09:30:09.136Z,20.70
2022-12-17T09:32:57.552Z,20.23
2022-12-17T09:35:42.450Z,20.40
2022-12-17T09:38:31.442Z,19.70
2022-12-17T09:41:20.714Z,21.13
2022-12-17T09:44:33.266Z,23.83
2022-12-17T09:47:27.014Z,25.70
2022-12-17T09:50:12.457Z,21.40
2022-12-17T09:53:00.262Z,24.03
2022-12-17T09:55:58.675Z,22.73
2022-12-17T09:58:45.939Z,23.23
2022-12-17T10:01:44.187Z,24.60
2022-12-17T10:05:00.097Z,26.17
2022-12-17T10:07:50.143Z,23.63
2022-12-17T10:10:41.921Z,23.57
2022-12-17T10:13:42.641Z,23.53
2022-12-17T10:16:41.655Z,22.47
2022-12-17T10:19:33.162Z,23.63
2022-12-17T10:22:29.935Z,24.93
2022-12-17T10:25:14.882Z,28.00
2022-12-17T10:28:00.086Z,24.20
2022-12-17T10:30:47.128Z,24.53
2022-12-17T10:33:37.560Z,28.07
2022-12-17T10:36:23.872Z,23.10
2022-12-17T10:39:13.308Z,24.70
2022-12-17T10:42:00.511Z,20.37
2022-12-17T10:44:52.416Z,26.10
2022-12-17T10:47:42.795Z,24.43
2022-12-17T10:50:30.923Z,24.60
2022-12-17T10:53:21.737Z,28.80
2022-12-17T10:56:13.397Z,23.47
2022-12-17T10:59:07.770Z,25.43
2022-12-17T11:01:53.168Z,27.23
2022-12-17T11:04:50.173Z,26.23
2022-12-17T11:07:47.487Z,24.33
2022-12-17T11:10:38.238Z,27.73
2022-12-17T11:13:27.201Z,25.33
2022-12-17T11:16:13.567Z,22.00
2022-12-17T11:18:58.658Z,23.97
2022-12-17T11:21:47.092Z,23.23
2022-12-17T11:24:36.716Z,25.97
2022-12-17T11:27:39.666Z,27.67
2022-12-17T11:30:32.150Z,21.43
2022-12-17T11:33:21.803Z,24.63
2022-12-17T11:36:39.119Z,23.93
2022-12-17T11:39:36.028Z,25.40
2022-12-17T11:42:39.651Z,24.17
2022-12-17T11:45:35.071Z,26.30
2022-12-17T11:48:27.907Z,26.87
2022-12-17T11:51:22.179Z,26.57
2022-12-17T11:54:28.799Z,24.03
2022-12-17T11:57:35.688Z,23.10
2022-12-17T12:00:27.643Z,21.60
2022-12-17T12:03:25.520Z,25.23
2022-12-17T12:06:19.105Z,23.10
2022-12-17T12:09:31.772Z,21.87
2022-12-17T12:12:52.814Z,24.87
2022-12-17T12:15:54.284Z,23.47
2022-12-17T12:18:49.137Z,24.40
2022-12-17T12:22:12.623Z,23.87
2022-12-17T12:25:10.231Z,22.33
2022-12-17T12:28:18.802Z,23.03
2022-12-17T12:31:10.912Z,22.67
2022-12-17T12:34:09.915Z,21.67
2022-12-17T12:36:56.778Z,20.70
2022-12-17T12:39:59.305Z,22.70
2022-12-17T12:43:02.181Z,22.53
2022-12-17T12:45:55.582Z,19.60
2022-12-17T12:48:46.911Z,19.53
2022-12-17T12:51:35.465Z,19.27
2022-12-17T12:54:39.111Z,18.47
2022-12-17T12:57:41.958Z,22.50
2022-12-17T13:00:39.803Z,16.87
2022-12-17T13:03:53.722Z,20.33
2022-12-17T13:06:45.067Z,20.17
2022-12-17T13:09:18.182Z,22.87
2022-12-17T13:11:48.837Z,21.53
2022-12-17T13:14:20.991Z,19.73
2022-12-17T13:16:47.585Z,15.83
2022-12-17T13:19:22.361Z,22.63
2022-12-17T13:21:48.998Z,18.40
2022-12-17T13:24:24.412Z,19.90
2022-12-17T13:26:51.063Z,19.13
2022-12-17T13:29:34.660Z,20.47
2022-12-17T13:32:01.295Z,20.07
2022-12-17T13:35:10.299Z,13.73
2022-12-17T13:37:42.571Z,31.60
2022-12-17T13:40:24.266Z,19.23
2022-12-17T13:42:51.015Z,17.53
2022-12-17T13:45:20.084Z,18.03
2022-12-17T13:47:56.913Z,21.27
2022-12-17T13:50:35.149Z,20.33
2022-12-17T13:53:13.110Z,18.73
2022-12-17T13:55:40.248Z,21.60
2022-12-17T13:58:19.282Z,19.57
2022-12-17T14:00:45.792Z,18.63
2022-12-17T14:03:12.340Z,19.13
2022-12-17T14:05:43.672Z,19.40
2022-12-17T14:08:16.059Z,20.77
2022-12-17T14:11:19.908Z,21.10
2022-12-17T14:13:48.240Z,19.60
2022-12-17T14:16:20.218Z,21.00
2022-12-17T14:18:50.416Z,26.00
2022-12-17T14:21:17.569Z,29.37
2022-12-17T14:23:45.148Z,31.90
2022-12-17T14:26:12.677Z,35.17
2022-12-17T14:28:51.523Z,30.93
2022-12-17T14:31:28.571Z,28.97
2022-12-17T14:34:07.649Z,31.97
2022-12-17T14:36:36.239Z,28.87
2022-12-17T14:39:11.112Z,29.67
2022-12-17T14:41:57.342Z,27.67
2022-12-17T14:44:28.614Z,30.23
2022-12-17T14:47:16.539Z,30.90
2022-12-17T14:50:02.843Z,32.73
2022-12-17T14:52:48.996Z,36.80
2022-12-17T14:55:35.651Z,36.90
2022-12-17T14:58:11.477Z,42.93
2022-12-17T15:00:44.056Z,47.67
2022-12-17T15:03:19.813Z,48.73
2022-12-17T15:05:59.379Z,47.20
2022-12-17T15:08:26.240Z,42.27
2022-12-17T15:10:52.722Z,47.50
2022-12-17T15:13:19.195Z,45.47
2022-12-17T15:15:46.202Z,45.03
2022-12-17T15:18:12.741Z,41.07
2022-12-17T15:20:39.272Z,47.43
2022-12-17T15:23:05.844Z,44.43
2022-12-17T15:25:32.373Z,44.47
2022-12-17T15:27:58.831Z,46.90
2022-12-17T15:30:26.109Z,46.67
2022-12-17T15:32:52.853Z,46.07
2022-12-17T15:35:19.563Z,43.73
2022-12-17T15:37:46.138Z,45.93
2022-12-17T15:40:12.884Z,40.43
2022-12-17T15:43:02.894Z,42.13
2022-12-17T15:45:33.290Z,40.50
2022-12-17T15:47:59.861Z,44.40
2022-12-17T15:50:26.627Z,39.37
2022-12-17T15:52:53.193Z,45.80
2022-12-17T15:55:19.781Z,43.73
2022-12-17T15:57:46.374Z,43.00
2022-12-17T16:00:13.367Z,42.20
2022-12-17T16:02:41.481Z,44.47
2022-12-17T16:05:08.538Z,42.37
2022-12-17T16:07:35.463Z,46.07
2022-12-17T16:10:05.446Z,44.17
2022-12-17T16:12:33.109Z,43.37
2022-12-17T16:14:59.624Z,43.50
2022-12-17T16:17:26.142Z,45.07
2022-12-17T16:19:52.725Z,43.60
2022-12-17T16:22:19.573Z,47.07
2022-12-17T16:24:46.186Z,46.60
2022-12-17T16:27:13.580Z,44.40
2022-12-17T16:29:40.177Z,46.63
2022-12-17T16:32:06.711Z,51.63
2022-12-17T16:34:34.443Z,49.00
2022-12-17T16:37:01.607Z,51.73
2022-12-17T16:39:28.841Z,44.57
2022-12-17T16:41:55.407Z,49.40
2022-12-17T16:44:21.920Z,47.20
2022-12-17T16:46:48.662Z,42.10
2022-12-17T16:49:18.133Z,45.40
2022-12-17T16:51:46.751Z,43.30
2022-12-17T16:54:17.186Z,49.40
2022-12-17T16:56:45.206Z,48.87
2022-12-17T16:59:13.736Z,47.07
2022-12-17T17:01:42.347Z,49.27
2022-12-17T17:04:09.874Z,53.30
2022-12-17T17:06:40.844Z,44.70
2022-12-17T17:09:08.973Z,50.07
2022-12-17T17:11:35.549Z,50.27
2022-12-17T17:14:02.195Z,48.20
2022-12-17T17:16:28.975Z,88.90
2022-12-17T17:18:55.877Z,105.43
2022-12-17T17:21:32.659Z,117.70
2022-12-17T17:24:01.530Z,120.87
2022-12-17T17:26:29.957Z,119.33
2022-12-17T17:28:56.802Z,117.30
2022-12-17T17:31:26.638Z,105.07
2022-12-17T17:33:54.336Z,89.20
2022-12-17T17:36:26.871Z,89.77
2022-12-17T17:38:58.340Z,80.37
2022-12-17T17:41:27.726Z,69.00
2022-12-17T17:43:59.668Z,68.80
2022-12-17T17:46:26.854Z,60.30
2022-12-17T17:48:57.096Z,63.07
2022-12-17T17:51:52.396Z,66.47
2022-12-17T17:54:15.965Z,59.70
2022-12-17T17:56:43.355Z,62.37
2022-12-17T17:59:20.470Z,67.27
2022-12-17T18:01:49.598Z,68.07
2022-12-17T18:04:18.916Z,59.80
2022-12-17T18:07:16.079Z,71.60
2022-12-17T18:09:33.173Z,71.13
2022-12-17T18:12:19.771Z,65.77
2022-12-17T18:15:11.985Z,58.07
2022-12-17T18:17:32.821Z,59.53
2022-12-17T18:19:59.381Z,62.33
2022-12-17T18:22:25.942Z,55.33
2022-12-17T18:24:52.488Z,61.93
2022-12-17T18:27:18.997Z,58.30
2022-12-17T18:29:45.593Z,48.00
2022-12-17T18:32:12.210Z,53.20
2022-12-17T18:34:38.819Z,57.13
2022-12-17T18:37:05.545Z,88.60
2022-12-17T18:39:32.973Z,74.57
2022-12-17T18:42:18.133Z,63.77
2022-12-17T18:44:44.980Z,50.23
2022-12-17T18:47:12.252Z,55.13
2022-12-17T18:49:39.497Z,50.27
2022-12-17T18:52:07.613Z,52.03
2022-12-17T18:54:36.178Z,55.63
2022-12-17T18:57:03.056Z,54.97
2022-12-17T18:59:30.592Z,62.97
2022-12-17T19:01:57.954Z,56.00
2022-12-17T19:04:24.942Z,60.50
2022-12-17T19:06:53.657Z,62.97
2022-12-17T19:09:29.222Z,68.07
2022-12-17T19:11:57.311Z,68.80
2022-12-17T19:14:25.268Z,61.07
2022-12-17T19:16:53.192Z,59.60
2022-12-17T19:19:20.448Z,67.43
2022-12-17T19:21:47.502Z,60.47
2022-12-17T19:24:15.458Z,51.93
2022-12-17T19:26:42.762Z,59.37
2022-12-17T19:29:11.371Z,52.07
2022-12-17T19:31:38.240Z,51.37
2022-12-17T19:34:07.073Z,58.00
2022-12-17T19:36:35.098Z,55.87
2022-12-17T19:39:03.797Z,54.27
2022-12-17T19:41:32.982Z,53.33
2022-12-17T19:44:01.755Z,50.87
2022-12-17T19:46:29.238Z,54.63
2022-12-17T19:48:57.359Z,55.80
2022-12-17T19:51:26.220Z,55.73
2022-12-17T19:53:52.803Z,57.87
2022-12-17T19:56:20.765Z,54.80
2022-12-17T19:58:50.906Z,58.77
2022-12-17T20:01:22.707Z,57.33
2022-12-17T20:03:49.308Z,64.03
2022-12-17T20:06:17.959Z,65.90
2022-12-17T20:08:44.692Z,65.43
2022-12-17T20:11:31.792Z,61.47
2022-12-17T20:14:02.965Z,55.10
2022-12-17T20:16:31.516Z,56.97
2022-12-17T20:19:02.504Z,65.97
2022-12-17T20:21:29.351Z,57.83
2022-12-17T20:23:56.046Z,55.70
2022-12-17T20:26:22.862Z,62.00
2022-12-17T20:28:49.341Z,55.67
2022-12-17T20:31:16.691Z,59.77
2022-12-17T20:33:43.491Z,56.87
2022-12-17T20:36:12.916Z,64.13
2022-12-17T20:38:40.345Z,57.70
2022-12-17T20:41:18.277Z,56.37
2022-12-17T20:43:45.485Z,56.10
2022-12-17T20:46:12.217Z,56.00
2022-12-17T20:48:40.631Z,60.47
2022-12-17T20:51:19.029Z,56.17
2022-12-17T20:53:50.161Z,62.63
2022-12-17T20:56:19.887Z,53.00
2022-12-17T20:58:46.862Z,58.37
2022-12-17T21:01:16.358Z,56.20
2022-12-17T21:03:43.141Z,56.80
2022-12-17T21:06:12.362Z,60.97
2022-12-17T21:08:44.789Z,61.77
2022-12-17T21:11:15.763Z,62.07
2022-12-17T21:13:42.811Z,58.43
2022-12-17T21:16:21.682Z,58.80
2022-12-17T21:18:48.298Z,58.27
2022-12-17T21:21:18.319Z,61.10
2022-12-17T21:23:46.507Z,51.27
2022-12-17T21:26:14.653Z,61.73
2022-12-17T21:28:45.058Z,56.57
2022-12-17T21:31:22.356Z,55.90
2022-12-17T21:33:50.276Z,57.90
2022-12-17T21:36:19.385Z,55.17
2022-12-17T21:38:46.903Z,53.73
2022-12-17T21:41:15.904Z,56.77
2022-12-17T21:43:43.063Z,58.50
2022-12-17T21:46:12.074Z,54.40
2022-12-17T21:48:42.236Z,55.57
2022-12-17T21:51:11.732Z,59.93
2022-12-17T21:53:42.471Z,54.20
2022-12-17T21:56:14.350Z,58.60
2022-12-17T21:58:42.602Z,56.40
2022-12-17T22:01:19.067Z,53.20
2022-12-17T22:03:53.730Z,53.40
2022-12-17T22:06:25.290Z,61.67
2022-12-17T22:09:02.292Z,60.40
2022-12-17T22:11:38.347Z,58.80
2022-12-17T22:14:13.766Z,59.17
2022-12-17T22:16:47.202Z,52.27
2022-12-17T22:19:17.538Z,58.23
2022-12-17T22:21:47.774Z,59.63
2022-12-17T22:24:19.465Z,60.10
2022-12-17T22:26:46.919Z,58.77
2022-12-17T22:29:33.838Z,55.93
2022-12-17T22:32:19.295Z,57.63
2022-12-17T22:34:55.196Z,59.60
2022-12-17T22:39:20.742Z,59.27
2022-12-17T22:44:33.646Z,57.40
2022-12-17T22:44:37.450Z,52.77
2022-12-17T22:46:16.103Z,60.57
2022-12-17T22:48:42.724Z,56.37
2022-12-17T22:51:17.715Z,58.80
2022-12-17T22:53:53.216Z,61.37
2022-12-17T22:56:50.833Z,61.87
2022-12-17T22:59:08.075Z,63.27
2022-12-17T23:01:35.065Z,56.63
2022-12-17T23:04:02.736Z,54.10
2022-12-17T23:06:29.797Z,54.77
2022-12-17T23:08:57.711Z,54.53
2022-12-17T23:11:26.559Z,59.47
2022-12-17T23:13:53.827Z,57.23
2022-12-17T23:16:21.163Z,57.73
2022-12-17T23:18:48.952Z,52.90
2022-12-17T23:21:18.873Z,54.87
2022-12-17T23:23:45.821Z,50.57
2022-12-17T23:26:18.851Z,53.97
2022-12-17T23:28:46.142Z,51.67
2022-12-17T23:31:21.855Z,58.13
2022-12-17T23:33:48.489Z,57.53
2022-12-17T23:36:20.417Z,65.47
2022-12-17T23:38:48.051Z,56.40
2022-12-17T23:41:20.225Z,60.67
2022-12-17T23:43:47.556Z,65.03
2022-12-17T23:46:14.509Z,59.97
2022-12-17T23:48:45.656Z,58.23
2022-12-17T23:51:14.337Z,54.50
2022-12-17T23:53:41.846Z,52.23
2022-12-17T23:56:13.305Z,59.73
2022-12-17T23:58:40.748Z,60.07
